Stations météo

Publicité
Lons-Le-Saunier, France (7390): Température de l'air & dewpoint: 03.07.2020 17:00:00 - 09.07.2020 17:00:00 (CEST)Lons-Le-Saunier, France (7390): Vitesse du vent & gusts: 03.07.2020 17:00:00 - 09.07.2020 17:00:00 (CEST)Lons-Le-Saunier, France (7390): Direction du vent: 03.07.2020 17:00:00 - 09.07.2020 17:00:00 (CEST)Lons-Le-Saunier, France (7390): Quantités de précipitations: 03.07.2020 17:00:00 - 09.07.2020 17:00:00 (CEST)
Date & Time tt [°C] td [°C] ff [km/h] ff [knt] fx [km/h] fx [knt] dd rr [mm]
09.07.2020 17:00:00 - - - - - - - -
09.07.2020 16:00:00 32,3 10,9 11 6 25 14 WSW 0,0
09.07.2020 15:00:00 31,1 9,3 6 3 21 12 W 0,0
09.07.2020 14:00:00 31,1 11,0 4 2 22 12 S 0,0
09.07.2020 13:00:00 29,3 11,4 8 5 18 10 NNW 0,0
09.07.2020 12:00:00 27,7 13,2 7 4 15 8 WNW 0,0
09.07.2020 11:00:00 25,8 13,6 9 5 16 9 W 0,0
09.07.2020 10:00:00 24,0 12,9 5 3 14 8 SW 0,0
09.07.2020 09:00:00 23,3 12,6 5 3 16 9 S 0,0
09.07.2020 08:00:00 20,6 11,0 13 7 20 11 ESE 0,0
09.07.2020 07:00:00 18,1 10,7 12 7 21 11 SE 0,0
09.07.2020 06:00:00 17,2 10,6 13 7 21 11 SE 0,0
09.07.2020 05:00:00 17,5 10,4 12 7 19 11 ESE 0,0
09.07.2020 04:00:00 17,6 10,5 11 6 18 10 SE 0,0
09.07.2020 03:00:00 19,1 10,4 11 6 19 10 ESE 0,0
09.07.2020 02:00:00 19,7 10,7 11 6 18 10 ESE 0,0
09.07.2020 01:00:00 20,1 11,0 11 6 18 10 ESE 0,0
09.07.2020 00:00:00 20,6 11,0 10 6 16 8 ESE 0,0
08.07.2020 23:00:00 21,3 11,3 9 5 12 7 ESE 0,0
08.07.2020 22:00:00 23,3 11,4 7 4 9 5 ESE 0,0
08.07.2020 21:00:00 25,5 11,3 5 3 7 4 ENE 0,0
08.07.2020 20:00:00 26,9 9,3 4 2 10 5 NNW 0,0
08.07.2020 19:00:00 28,6 8,8 6 3 16 9 NNW 0,0
08.07.2020 18:00:00 28,8 9,0 5 3 21 11 NNW 0,0
08.07.2020 17:00:00 28,1 9,4 8 4 19 11 W 0,0
08.07.2020 16:00:00 27,7 9,5 9 5 34 19 W 0,0
08.07.2020 15:00:00 26,6 8,5 8 5 22 12 W 0,0
08.07.2020 14:00:00 26,3 7,3 11 6 23 12 N 0,0
08.07.2020 13:00:00 25,6 7,7 11 6 29 16 W 0,0
08.07.2020 12:00:00 24,0 7,6 10 6 23 12 WNW 0,0
08.07.2020 11:00:00 23,1 8,0 11 6 21 11 NNW 0,0
08.07.2020 10:00:00 21,4 11,1 9 5 14 8 NW 0,0
08.07.2020 09:00:00 20,7 9,6 2 1 10 5 SW 0,0
08.07.2020 08:00:00 18,4 8,9 4 2 14 7 E 0,0
08.07.2020 07:00:00 15,0 8,0 11 6 14 8 ESE 0,0
08.07.2020 06:00:00 13,5 7,5 9 5 12 7 ESE 0,0
08.07.2020 05:00:00 13,9 7,9 6 4 8 5 ESE 0,0
08.07.2020 04:00:00 14,4 7,9 6 3 12 6 E 0,0
08.07.2020 03:00:00 14,7 8,0 9 5 13 7 ESE 0,0
08.07.2020 02:00:00 14,9 8,4 9 5 16 9 ESE 0,0
08.07.2020 01:00:00 15,3 8,3 7 4 13 7 NE 0,0
08.07.2020 00:00:00 17,3 7,9 6 3 9 5 E 0,0
07.07.2020 23:00:00 17,3 8,7 8 4 10 5 ESE 0,0
07.07.2020 22:00:00 19,1 7,2 5 3 10 5 E 0,0
07.07.2020 21:00:00 21,9 6,5 6 3 13 7 N 0,0
07.07.2020 20:00:00 23,1 5,9 9 5 20 11 NNE 0,0
07.07.2020 19:00:00 24,8 7,0 9 5 27 15 N 0,0
07.07.2020 18:00:00 24,9 7,5 15 8 32 17 NNW 0,0
07.07.2020 17:00:00 24,7 5,5 13 7 33 18 N 0,0
07.07.2020 16:00:00 24,3 7,0 14 8 30 16 N 0,0
07.07.2020 15:00:00 23,5 5,8 19 10 33 18 NNW 0,0
07.07.2020 14:00:00 23,4 6,2 20 11 36 19 NNE 0,0
07.07.2020 13:00:00 22,1 5,9 17 9 37 20 N 0,0
07.07.2020 12:00:00 21,6 5,5 19 10 35 19 N 0,0
07.07.2020 11:00:00 20,5 7,5 19 11 32 17 N 0,0
07.07.2020 10:00:00 18,1 9,2 14 7 23 13 NW 0,0
07.07.2020 09:00:00 15,5 9,2 10 5 16 9 NW 0,0
07.07.2020 08:00:00 13,4 8,5 6 3 16 9 NW 0,0
07.07.2020 07:00:00 12,1 6,6 7 4 16 9 NNE 0,0
07.07.2020 06:00:00 11,3 6,0 8 4 16 8 NNE 0,0
07.07.2020 05:00:00 11,0 5,9 9 5 13 7 ENE 0,0
07.07.2020 04:00:00 11,9 5,7 10 6 18 10 ENE 0,0
07.07.2020 03:00:00 12,4 6,2 15 8 20 11 ENE 0,0
07.07.2020 02:00:00 12,9 6,2 14 8 17 9 ENE 0,0
07.07.2020 01:00:00 14,5 5,8 14 7 20 11 ENE 0,0
07.07.2020 00:00:00 15,6 5,8 15 8 29 16 NE 0,0
06.07.2020 23:00:00 16,7 6,5 17 9 27 14 NNE 0,0
06.07.2020 22:00:00 17,8 6,6 16 9 31 17 NNE 0,0
06.07.2020 21:00:00 19,6 6,0 18 10 37 20 N 0,0
06.07.2020 20:00:00 21,3 5,2 16 9 32 17 N 0,0
06.07.2020 19:00:00 22,9 5,3 19 10 34 18 NNW 0,0
06.07.2020 18:00:00 23,5 2,9 16 8 33 18 NNW 0,0
06.07.2020 17:00:00 23,7 4,1 14 8 34 18 NW 0,0
06.07.2020 16:00:00 23,6 5,5 11 6 34 18 NNW 0,0
06.07.2020 15:00:00 23,3 5,2 17 9 31 17 NW 0,0
06.07.2020 14:00:00 21,7 8,6 16 9 29 16 WNW 0,0
06.07.2020 13:00:00 21,1 11,1 16 8 30 16 WNW 0,0
06.07.2020 12:00:00 19,9 13,4 9 5 19 10 NW 0,0
06.07.2020 11:00:00 18,9 13,3 12 6 25 14 N 0,0
06.07.2020 10:00:00 17,3 14,8 13 7 30 16 NNW 0,0
06.07.2020 09:00:00 17,4 16,8 5 3 21 11 WNW 0,6
06.07.2020 08:00:00 17,3 16,3 14 8 26 14 NW 0,2
06.07.2020 07:00:00 19,0 16,2 10 5 23 12 WSW 0,0
06.07.2020 06:00:00 19,3 16,3 10 5 22 12 SW 0,0
06.07.2020 05:00:00 19,5 16,2 10 5 17 9 SSW 0,0
06.07.2020 04:00:00 19,6 15,5 9 5 16 9 SSW 0,0
06.07.2020 03:00:00 19,6 15,3 8 5 14 7 S 0,0
06.07.2020 02:00:00 19,2 15,3 6 3 12 7 SE 0,0
06.07.2020 01:00:00 20,2 15,4 8 4 10 6 SSE 0,0
06.07.2020 00:00:00 21,0 15,5 6 3 16 9 S 0,0
05.07.2020 23:00:00 22,1 15,7 12 6 22 12 W 0,0
05.07.2020 22:00:00 22,9 15,5 9 5 18 10 W 0,0
05.07.2020 21:00:00 24,8 15,4 9 5 19 11 W 0,0
05.07.2020 20:00:00 26,6 16,2 13 7 23 13 WSW 0,0
05.07.2020 19:00:00 27,4 16,7 15 8 32 18 W 0,0
05.07.2020 18:00:00 28,3 15,9 12 6 26 14 WSW 0,0
05.07.2020 17:00:00 28,2 16,1 13 7 29 15 WSW 0,0
05.07.2020 16:00:00 27,2 16,2 8 5 31 17 WSW 0,0
05.07.2020 15:00:00 26,3 16,2 11 6 26 14 SW 0,0
05.07.2020 14:00:00 25,1 15,7 12 6 32 17 W 0,0
05.07.2020 13:00:00 24,9 16,6 11 6 26 14 SW 0,0
05.07.2020 12:00:00 23,1 15,4 12 6 22 12 S 0,0
05.07.2020 11:00:00 21,4 15,0 12 7 21 11 SSW 0,0
05.07.2020 10:00:00 20,4 14,7 14 8 22 12 SSW 0,0
05.07.2020 09:00:00 18,9 15,0 9 5 18 10 S 0,0
05.07.2020 08:00:00 17,9 15,5 12 6 20 11 WSW 0,0
05.07.2020 07:00:00 19,1 13,7 6 3 15 8 S 0,0
05.07.2020 06:00:00 18,2 12,9 7 4 11 6 SSE 0,0
05.07.2020 05:00:00 17,5 12,4 6 4 12 6 SE 0,0
05.07.2020 04:00:00 17,4 11,9 9 5 12 6 SE 0,0
05.07.2020 03:00:00 16,9 11,6 9 5 14 7 SE 0,0
05.07.2020 02:00:00 17,3 11,3 10 5 13 7 SE 0,0
05.07.2020 01:00:00 17,9 11,5 9 5 12 6 SE 0,0
05.07.2020 00:00:00 18,6 11,4 8 4 10 5 SE 0,0
04.07.2020 23:00:00 19,8 11,6 8 4 10 5 SE 0,0
04.07.2020 22:00:00 21,7 11,4 5 3 8 4 SSE 0,0
04.07.2020 21:00:00 23,2 11,6 6 3 16 9 W 0,0
04.07.2020 20:00:00 23,6 10,6 7 4 18 10 W 0,0
04.07.2020 19:00:00 24,8 10,3 9 5 23 13 W 0,0
04.07.2020 18:00:00 25,3 10,0 12 6 26 14 SW 0,0
04.07.2020 17:00:00 25,4 10,8 6 4 26 14 W 0,0
04.07.2020 16:00:00 24,6 9,3 14 8 26 14 W 0,0
04.07.2020 15:00:00 24,5 9,2 10 5 28 15 WSW 0,0
04.07.2020 14:00:00 24,0 11,0 8 4 25 14 W 0,0
04.07.2020 13:00:00 22,6 9,4 9 5 23 12 W 0,0
04.07.2020 12:00:00 21,9 10,4 6 3 21 11 N 0,0
04.07.2020 11:00:00 20,9 10,7 8 4 19 10 WNW 0,0
04.07.2020 10:00:00 19,3 9,8 10 5 18 10 NW 0,0
04.07.2020 09:00:00 18,3 10,4 2 1 9 5 W 0,0
04.07.2020 08:00:00 15,8 10,8 4 2 10 5 SE 0,0
04.07.2020 07:00:00 13,5 10,1 5 3 12 6 SE 0,0
04.07.2020 06:00:00 12,4 9,6 8 5 12 6 ESE 0,0
04.07.2020 05:00:00 12,8 9,6 6 4 10 5 ESE 0,0
04.07.2020 04:00:00 13,4 9,6 6 3 12 7 SSE 0,0
04.07.2020 03:00:00 14,1 9,9 8 4 14 8 ESE 0,0
04.07.2020 02:00:00 13,6 10,0 7 4 9 5 E 0,0
04.07.2020 01:00:00 15,1 9,9 7 4 8 5 SE 0,0
04.07.2020 00:00:00 16,2 9,8 5 3 10 5 ESE 0,0
03.07.2020 23:00:00 17,8 9,2 3 2 8 4 E 0,0
03.07.2020 22:00:00 18,6 8,8 5 3 11 6 NE 0,0
03.07.2020 21:00:00 20,3 8,6 8 4 21 11 NNE 0,0
03.07.2020 20:00:00 22,3 9,5 14 7 26 14 N 0,0
03.07.2020 19:00:00 23,1 9,5 15 8 27 14 NNW 0,0
03.07.2020 18:00:00 23,3 8,9 18 10 - - N 0,0
03.07.2020 17:00:00 23,0 9,4 19 10 38 21 N 0,0

tt = Température de l'air
td = dewpoint
ff = Vitesse du vent
fx = gusts
dd = Direction du vent
rr = Quantités de précipitations

stations d'obs. à proximité